Time;durP1;ratioP1;P1;durP2;ratioP2;P2;SDS_P1;SDS_P2;PMS_P1;PMS_P2;Temp;Humidity;BMP_temperature;BMP_pressure;BME280_temperature;BME280_humidity;BME280_pressure;Samples;Min_cycle;Max_cycle;Signal;HPM_P1;HPM_P2
2023/03/12 00:00:00;;;;;;;;;;;-0.60;99.90;;;;;;5007013;28;212960;-68
2023/03/12 00:02:25;;;;;;;;;;;-0.60;99.90;;;;;;5069400;28;19924;-68
2023/03/12 00:04:51;;;;;;;;;;;-0.70;99.90;;;;;;4991049;28;211070;-69
2023/03/12 00:07:17;;;;;;;;;;;-0.70;99.90;;;;;;5054295;28;20061;-69
2023/03/12 00:09:44;;;;;;;;;;;-0.70;99.90;;;;;;4984973;28;208194;-69
2023/03/12 00:12:10;;;;;;;;;;;-0.80;99.90;;;;;;5051679;28;19939;-68
2023/03/12 00:14:36;;;;;;;;;;;-0.80;99.90;;;;;;4993723;28;212153;-67
2023/03/12 00:17:02;;;;;;;;;;;-0.90;99.90;;;;;;5057361;28;19924;-67
2023/03/12 00:19:28;;;;;;;;;;;-1.00;99.90;;;;;;5017374;28;208453;-67
2023/03/12 00:21:54;;;;;;;;;;;-1.00;99.90;;;;;;5064670;28;20239;-68
2023/03/12 00:24:20;;;;;;;;;;;-1.00;99.90;;;;;;5003182;28;211249;-67
2023/03/12 00:26:46;;;;;;;;;;;-1.10;99.90;;;;;;5057621;28;19936;-67
2023/03/12 00:29:12;;;;;;;;;;;-1.10;99.90;;;;;;5020134;28;206072;-69
2023/03/12 00:31:38;;;;;;;;;;;-1.10;99.90;;;;;;5058733;28;19933;-68
2023/03/12 00:34:04;;;;;;;;;;;-1.10;99.90;;;;;;5000162;28;208804;-68
2023/03/12 00:36:31;;;;;;;;;;;-1.10;99.90;;;;;;5045638;28;19921;-68
2023/03/12 00:38:58;;;;;;;;;;;-1.10;99.90;;;;;;5006257;28;209880;-67
2023/03/12 00:41:24;;;;;;;;;;;-1.00;99.90;;;;;;5057522;28;19991;-68
2023/03/12 00:43:51;;;;;;;;;;;-1.00;99.90;;;;;;5006643;28;217868;-68
2023/03/12 00:46:17;;;;;;;;;;;-1.00;99.90;;;;;;5050181;28;19935;-68
2023/03/12 00:48:43;;;;;;;;;;;-1.00;99.90;;;;;;4999339;28;208334;-67
2023/03/12 00:51:09;;;;;;;;;;;-1.00;99.90;;;;;;5065591;28;19927;-68
2023/03/12 00:53:35;;;;;;;;;;;-1.00;99.90;;;;;;5039853;28;208363;-67
2023/03/12 00:56:02;;;;;;;;;;;-1.00;99.90;;;;;;5048455;28;19935;-67
2023/03/12 00:58:28;;;;;;;;;;;-1.00;99.90;;;;;;5049412;28;19932;-68
2023/03/12 01:00:54;;;;;;;;;;;-1.10;99.90;;;;;;5008154;28;214457;-68
2023/03/12 01:03:20;;;;;;;;;;;-1.00;99.90;;;;;;5076289;28;19924;-67
2023/03/12 01:05:48;;;;;;;;;;;-1.10;99.90;;;;;;4995505;28;239125;-66
2023/03/12 01:08:14;;;;;;;;;;;-1.10;99.90;;;;;;5052646;28;19927;-68
2023/03/12 01:10:41;;;;;;;;;;;-1.10;99.90;;;;;;4987456;28;207501;-68
2023/03/12 01:13:07;;;;;;;;;;;-1.10;99.90;;;;;;5081762;28;20442;-69
2023/03/12 01:15:33;;;;;;;;;;;-1.10;99.90;;;;;;5002717;28;205740;-68
2023/03/12 01:17:59;;;;;;;;;;;-1.10;99.90;;;;;;5074223;28;19923;-67
2023/03/12 01:20:25;;;;;;;;;;;-1.20;99.90;;;;;;4999360;28;211700;-67
2023/03/12 01:22:50;;;;;;;;;;;-1.10;99.90;;;;;;5065226;28;20404;-67
2023/03/12 01:25:16;;;;;;;;;;;-1.10;99.90;;;;;;5015392;28;204808;-68
2023/03/12 01:27:42;;;;;;;;;;;-1.10;99.90;;;;;;5065550;28;21124;-68
2023/03/12 01:30:09;;;;;;;;;;;-1.10;99.90;;;;;;5003728;28;216831;-68
2023/03/12 01:32:35;;;;;;;;;;;-1.10;99.90;;;;;;5063415;28;19924;-69
2023/03/12 01:35:01;;;;;;;;;;;-1.00;99.90;;;;;;5029155;28;212628;-68
2023/03/12 01:37:27;;;;;;;;;;;-1.00;99.90;;;;;;5067875;28;19924;-67
2023/03/12 01:39:53;;;;;;;;;;;-0.90;99.90;;;;;;5020788;28;226287;-66
2023/03/12 01:42:19;;;;;;;;;;;-0.90;99.90;;;;;;5067402;28;19925;-68
2023/03/12 01:44:58;;;;;;;;;;;-0.80;99.90;;;;;;5003320;28;206554;-67
2023/03/12 01:47:25;;;;;;;;;;;-0.80;99.90;;;;;;5056499;28;19928;-69
2023/03/12 01:49:52;;;;;;;;;;;-0.80;99.90;;;;;;5004112;28;206040;-67
2023/03/12 01:52:29;;;;;;;;;;;-0.80;99.90;;;;;;5053165;28;19920;-67
2023/03/12 01:55:12;;;;;;;;;;;-0.70;99.90;;;;;;4986115;28;203409;-68
2023/03/12 01:57:54;;;;;;;;;;;-0.60;99.90;;;;;;5049639;28;20676;-66
2023/03/12 02:00:22;;;;;;;;;;;-0.50;99.90;;;;;;5035691;28;208494;-68
2023/03/12 02:02:49;;;;;;;;;;;-0.50;99.90;;;;;;5059787;28;19921;-67
2023/03/12 02:05:22;;;;;;;;;;;-0.40;99.90;;;;;;4980252;28;206192;-69
2023/03/12 02:07:48;;;;;;;;;;;-0.40;99.90;;;;;;5074174;28;20661;-69
2023/03/12 02:10:14;;;;;;;;;;;-0.40;99.90;;;;;;5005200;28;201996;-67
2023/03/12 02:12:40;;;;;;;;;;;-0.30;99.90;;;;;;5046226;28;19921;-68
2023/03/12 02:15:06;;;;;;;;;;;-0.30;99.90;;;;;;5011633;27;205749;-66
2023/03/12 02:17:34;;;;;;;;;;;-0.20;99.90;;;;;;5073447;27;20312;-68
2023/03/12 02:20:09;;;;;;;;;;;-0.20;99.90;;;;;;5020896;27;208229;-68
2023/03/12 02:22:36;;;;;;;;;;;-0.20;99.90;;;;;;5080778;28;19943;-68
2023/03/12 02:25:04;;;;;;;;;;;-0.20;99.90;;;;;;5012217;28;208590;-68
2023/03/12 02:27:32;;;;;;;;;;;-0.20;99.90;;;;;;5076608;28;19927;-68
2023/03/12 02:29:58;;;;;;;;;;;-0.20;99.90;;;;;;5012026;28;215325;-68
2023/03/12 02:32:27;;;;;;;;;;;-0.20;99.90;;;;;;5054717;28;19931;-68
2023/03/12 02:34:54;;;;;;;;;;;-0.20;99.90;;;;;;4982203;28;167414;-67
2023/03/12 02:37:20;;;;;;;;;;;-0.20;99.90;;;;;;5050023;28;19924;-68
2023/03/12 02:39:50;;;;;;;;;;;-0.20;99.90;;;;;;5010799;28;213376;-68
2023/03/12 02:42:16;;;;;;;;;;;-0.20;99.90;;;;;;5055094;28;19924;-68
2023/03/12 02:44:42;;;;;;;;;;;-0.20;99.90;;;;;;5018214;27;210524;-69
2023/03/12 02:47:08;;;;;;;;;;;-0.10;99.90;;;;;;5067523;28;20305;-69
2023/03/12 02:49:34;;;;;;;;;;;-0.10;99.90;;;;;;5033811;28;205528;-66
2023/03/12 02:52:01;;;;;;;;;;;-0.10;99.90;;;;;;5052152;28;19920;-68
2023/03/12 02:54:27;;;;;;;;;;;-0.10;99.90;;;;;;5013007;28;211349;-68
2023/03/12 02:56:53;;;;;;;;;;;0.00;99.90;;;;;;5050688;28;19924;-68
2023/03/12 02:59:20;;;;;;;;;;;0.00;99.90;;;;;;4991997;28;209679;-68
2023/03/12 03:01:46;;;;;;;;;;;0.00;99.90;;;;;;5049737;28;19931;-68
2023/03/12 03:04:12;;;;;;;;;;;0.10;99.90;;;;;;4977701;28;208174;-68
2023/03/12 03:06:39;;;;;;;;;;;0.10;99.90;;;;;;5036043;28;19940;-69
2023/03/12 03:09:06;;;;;;;;;;;0.10;99.90;;;;;;5002376;28;191016;-66
2023/03/12 03:11:32;;;;;;;;;;;0.10;99.90;;;;;;5039200;28;20313;-68
2023/03/12 03:13:58;;;;;;;;;;;0.20;99.90;;;;;;5023240;28;208828;-69
2023/03/12 03:16:24;;;;;;;;;;;0.20;99.90;;;;;;5063846;28;20033;-70
2023/03/12 03:18:50;;;;;;;;;;;0.20;99.90;;;;;;5020569;28;208940;-69
2023/03/12 03:21:16;;;;;;;;;;;0.20;99.90;;;;;;5051067;28;20385;-68
2023/03/12 03:23:43;;;;;;;;;;;0.20;99.90;;;;;;4999607;28;207867;-69
2023/03/12 03:26:09;;;;;;;;;;;0.30;99.90;;;;;;5070103;28;19952;-69
2023/03/12 03:28:35;;;;;;;;;;;0.30;99.90;;;;;;5019348;28;212654;-69
2023/03/12 03:31:01;;;;;;;;;;;0.30;99.90;;;;;;5031247;28;19924;-69
2023/03/12 03:33:28;;;;;;;;;;;0.30;99.90;;;;;;5061097;28;20015;-69
2023/03/12 03:35:54;;;;;;;;;;;0.30;99.90;;;;;;5016222;28;206150;-70
2023/03/12 03:38:21;;;;;;;;;;;0.30;99.90;;;;;;5060559;28;20635;-70
2023/03/12 03:40:47;;;;;;;;;;;0.30;99.90;;;;;;5006991;28;181305;-69
2023/03/12 03:43:13;;;;;;;;;;;0.40;99.90;;;;;;5090501;28;19932;-70
2023/03/12 03:45:38;;;;;;;;;;;0.30;99.90;;;;;;5009110;28;209664;-69
2023/03/12 03:48:05;;;;;;;;;;;0.30;99.90;;;;;;5059371;28;19924;-69
2023/03/12 03:50:31;;;;;;;;;;;0.30;99.90;;;;;;4999630;28;209647;-69
2023/03/12 03:52:57;;;;;;;;;;;0.40;99.90;;;;;;5061350;28;20337;-68
2023/03/12 03:55:23;;;;;;;;;;;0.40;99.90;;;;;;5029254;28;207135;-69
2023/03/12 03:57:49;;;;;;;;;;;0.50;99.90;;;;;;5069420;28;19924;-70
2023/03/12 04:00:16;;;;;;;;;;;0.50;99.90;;;;;;4999864;28;216305;-69
2023/03/12 04:02:43;;;;;;;;;;;0.50;99.90;;;;;;5056420;28;19924;-69
2023/03/12 04:05:09;;;;;;;;;;;0.50;99.90;;;;;;4961611;28;104974;-68
2023/03/12 04:07:35;;;;;;;;;;;0.60;99.90;;;;;;5035525;28;19920;-69
2023/03/12 04:10:02;;;;;;;;;;;0.60;99.90;;;;;;5002406;28;208683;-69
2023/03/12 04:12:28;;;;;;;;;;;0.60;99.90;;;;;;5060993;28;19924;-69
2023/03/12 04:14:54;;;;;;;;;;;0.70;99.90;;;;;;5012481;28;205110;-69
2023/03/12 04:17:20;;;;;;;;;;;0.60;99.90;;;;;;5081058;28;19932;-70
2023/03/12 04:19:46;;;;;;;;;;;0.70;99.90;;;;;;5024195;28;211857;-68
2023/03/12 04:22:13;;;;;;;;;;;0.70;99.90;;;;;;5096524;28;20694;-69
2023/03/12 04:24:38;;;;;;;;;;;0.60;99.90;;;;;;5007867;28;207135;-69
2023/03/12 04:27:04;;;;;;;;;;;0.60;99.90;;;;;;5054391;28;19930;-69
2023/03/12 04:29:30;;;;;;;;;;;0.70;99.90;;;;;;5023333;28;208302;-69
2023/03/12 04:31:56;;;;;;;;;;;0.70;99.90;;;;;;5077678;28;19924;-69
2023/03/12 04:34:22;;;;;;;;;;;0.70;99.90;;;;;;5028598;28;209441;-68
2023/03/12 04:36:48;;;;;;;;;;;0.70;99.90;;;;;;5072169;28;20466;-72
2023/03/12 04:39:18;;;;;;;;;;;0.60;99.90;;;;;;5020219;28;209054;-73
2023/03/12 04:41:44;;;;;;;;;;;0.60;99.90;;;;;;5059498;28;19931;-72
2023/03/12 04:44:10;;;;;;;;;;;0.60;99.90;;;;;;5023729;28;207076;-71
2023/03/12 04:46:36;;;;;;;;;;;0.70;99.90;;;;;;5063022;28;20325;-72
2023/03/12 04:49:03;;;;;;;;;;;0.70;99.90;;;;;;5009990;28;208349;-71
2023/03/12 04:51:29;;;;;;;;;;;0.80;99.90;;;;;;5071511;28;20293;-73
2023/03/12 04:53:55;;;;;;;;;;;0.80;99.90;;;;;;5025649;28;212476;-74
2023/03/12 04:56:21;;;;;;;;;;;0.80;99.90;;;;;;5073925;28;20549;-72
2023/03/12 04:58:47;;;;;;;;;;;0.80;99.90;;;;;;4999252;28;212483;-74
2023/03/12 05:01:42;;;;;;;;;;;0.90;99.90;;;;;;5058672;28;19939;-74
2023/03/12 05:04:08;;;;;;;;;;;0.90;99.90;;;;;;4968846;28;208124;-72
2023/03/12 05:06:34;;;;;;;;;;;0.80;99.90;;;;;;5013089;28;19936;-72
2023/03/12 05:09:00;;;;;;;;;;;0.90;99.90;;;;;;5010372;28;211944;-72
2023/03/12 05:11:26;;;;;;;;;;;0.90;99.90;;;;;;5045448;28;20629;-73
2023/03/12 05:13:53;;;;;;;;;;;0.90;99.90;;;;;;5002275;28;209922;-73
2023/03/12 05:16:19;;;;;;;;;;;0.90;99.90;;;;;;5062308;28;19928;-75
2023/03/12 05:18:46;;;;;;;;;;;0.90;99.90;;;;;;5022975;28;208963;-73
2023/03/12 05:21:13;;;;;;;;;;;0.90;99.90;;;;;;5047886;28;20361;-73
2023/03/12 05:23:41;;;;;;;;;;;0.90;99.90;;;;;;5003707;28;208647;-74
2023/03/12 05:26:14;;;;;;;;;;;1.00;99.90;;;;;;5043166;28;19940;-73
2023/03/12 05:28:40;;;;;;;;;;;1.00;99.90;;;;;;4999024;28;209874;-73
2023/03/12 05:31:08;;;;;;;;;;;1.00;99.90;;;;;;5061127;28;20385;-73
2023/03/12 05:33:34;;;;;;;;;;;1.10;99.90;;;;;;5030727;28;210691;-73
2023/03/12 05:35:59;;;;;;;;;;;1.10;99.90;;;;;;5018656;28;100718;-73
2023/03/12 05:38:25;;;;;;;;;;;1.00;99.90;;;;;;5059228;28;19924;-73
2023/03/12 05:40:52;;;;;;;;;;;1.10;99.90;;;;;;5008282;28;212561;-75
2023/03/12 05:43:18;;;;;;;;;;;1.10;99.90;;;;;;5055118;28;19941;-75
2023/03/12 05:45:44;;;;;;;;;;;1.10;99.90;;;;;;5009164;28;209209;-73
2023/03/12 05:48:10;;;;;;;;;;;1.10;99.90;;;;;;5045752;28;20324;-73
2023/03/12 05:50:36;;;;;;;;;;;1.20;99.90;;;;;;5010432;28;211826;-73
2023/03/12 05:53:02;;;;;;;;;;;1.20;99.90;;;;;;5055978;28;19924;-74
2023/03/12 05:55:28;;;;;;;;;;;1.20;99.90;;;;;;4990768;28;208877;-75
2023/03/12 05:57:54;;;;;;;;;;;1.20;99.90;;;;;;5054792;28;19924;-72
2023/03/12 06:00:20;;;;;;;;;;;1.20;99.90;;;;;;5002898;28;213323;-73
2023/03/12 06:02:46;;;;;;;;;;;1.20;99.90;;;;;;5064076;28;19932;-72
2023/03/12 06:05:12;;;;;;;;;;;1.20;99.90;;;;;;4995654;28;207255;-72
2023/03/12 06:07:38;;;;;;;;;;;1.20;99.90;;;;;;5063410;28;19932;-72
2023/03/12 06:10:04;;;;;;;;;;;1.20;99.90;;;;;;5023098;28;209178;-72
2023/03/12 06:12:30;;;;;;;;;;;1.20;99.90;;;;;;5079439;28;20353;-72
2023/03/12 06:14:56;;;;;;;;;;;1.30;99.90;;;;;;5016732;28;212510;-73
2023/03/12 06:17:22;;;;;;;;;;;1.30;99.90;;;;;;5066278;28;19927;-72
2023/03/12 06:19:52;;;;;;;;;;;1.30;99.90;;;;;;5028080;28;218527;-71
2023/03/12 06:22:18;;;;;;;;;;;1.30;99.90;;;;;;5084513;27;19920;-72
2023/03/12 06:24:46;;;;;;;;;;;1.40;99.90;;;;;;5021325;28;208581;-72
2023/03/12 06:27:12;;;;;;;;;;;1.40;99.90;;;;;;5080383;28;19927;-72
2023/03/12 06:29:39;;;;;;;;;;;1.40;99.90;;;;;;5024791;28;222973;-71
2023/03/12 06:32:05;;;;;;;;;;;1.40;99.90;;;;;;5065799;28;20292;-72
2023/03/12 06:34:31;;;;;;;;;;;1.40;99.90;;;;;;5012624;28;212300;-72
2023/03/12 06:36:57;;;;;;;;;;;1.40;99.90;;;;;;5048707;28;19943;-72
2023/03/12 06:39:23;;;;;;;;;;;1.40;99.90;;;;;;5003416;28;207135;-72
2023/03/12 06:41:49;;;;;;;;;;;1.50;99.90;;;;;;5053952;28;19924;-73
2023/03/12 06:44:15;;;;;;;;;;;1.50;99.90;;;;;;5010859;28;208182;-72
2023/03/12 06:46:43;;;;;;;;;;;1.50;99.90;;;;;;5083704;28;19929;-72
2023/03/12 06:49:11;;;;;;;;;;;1.50;99.90;;;;;;5010101;28;210919;-72
2023/03/12 06:51:37;;;;;;;;;;;1.50;99.90;;;;;;5071545;28;20437;-74
2023/03/12 06:54:03;;;;;;;;;;;1.60;99.90;;;;;;5005054;28;208989;-72
2023/03/12 06:56:29;;;;;;;;;;;1.60;99.90;;;;;;5044401;28;20409;-72
2023/03/12 06:58:55;;;;;;;;;;;1.60;99.90;;;;;;5020752;28;206297;-72
2023/03/12 07:01:21;;;;;;;;;;;1.70;99.90;;;;;;5055247;28;20030;-73
2023/03/12 07:03:47;;;;;;;;;;;1.80;99.90;;;;;;4982005;28;210370;-73
2023/03/12 07:06:14;;;;;;;;;;;1.80;99.90;;;;;;5046395;28;19924;-73
2023/03/12 07:08:40;;;;;;;;;;;1.80;99.90;;;;;;5000787;28;208535;-73
2023/03/12 07:11:06;;;;;;;;;;;1.80;99.90;;;;;;5035891;28;20395;-72
2023/03/12 07:13:32;;;;;;;;;;;1.80;99.90;;;;;;5038142;28;208613;-73
2023/03/12 07:15:58;;;;;;;;;;;1.70;99.90;;;;;;5041868;28;86692;-73
2023/03/12 07:18:24;;;;;;;;;;;1.70;99.90;;;;;;5053665;28;19943;-74
2023/03/12 07:20:50;;;;;;;;;;;1.70;99.90;;;;;;4996274;28;206416;-72
2023/03/12 07:23:16;;;;;;;;;;;1.70;99.90;;;;;;5078863;28;20032;-72
2023/03/12 07:25:42;;;;;;;;;;;1.70;99.90;;;;;;5013199;28;206493;-72
2023/03/12 07:28:09;;;;;;;;;;;1.60;99.90;;;;;;5061240;28;19928;-73
2023/03/12 07:30:35;;;;;;;;;;;1.70;99.90;;;;;;5024282;28;209127;-72
2023/03/12 07:33:02;;;;;;;;;;;1.70;99.90;;;;;;5077799;28;19947;-72
2023/03/12 07:35:28;;;;;;;;;;;1.70;99.90;;;;;;4998881;28;211707;-74
2023/03/12 07:37:54;;;;;;;;;;;1.60;99.90;;;;;;5060003;28;19935;-72
2023/03/12 07:40:20;;;;;;;;;;;1.60;99.90;;;;;;4975223;28;206297;-71
2023/03/12 07:42:46;;;;;;;;;;;1.60;99.90;;;;;;5059120;28;19932;-71
2023/03/12 07:45:12;;;;;;;;;;;1.70;99.90;;;;;;4997171;28;234298;-71
2023/03/12 07:47:38;;;;;;;;;;;1.70;99.90;;;;;;5080167;28;19935;-71
2023/03/12 07:50:04;;;;;;;;;;;1.70;99.90;;;;;;5014593;28;207103;-73
2023/03/12 07:52:30;;;;;;;;;;;1.80;99.90;;;;;;5071722;28;19946;-72
2023/03/12 07:54:57;;;;;;;;;;;1.80;99.90;;;;;;5012838;28;206836;-71
2023/03/12 07:57:23;;;;;;;;;;;1.80;99.90;;;;;;5048583;28;20288;-71
2023/03/12 07:59:49;;;;;;;;;;;1.90;99.90;;;;;;4987020;28;211933;-72
2023/03/12 08:02:15;;;;;;;;;;;1.90;99.90;;;;;;5039522;28;19985;-71
2023/03/12 08:04:41;;;;;;;;;;;1.90;99.90;;;;;;4997222;28;224114;-72
2023/03/12 08:07:07;;;;;;;;;;;1.80;99.90;;;;;;5073857;28;19924;-71
2023/03/12 08:09:33;;;;;;;;;;;1.90;99.90;;;;;;5016124;28;239849;-71
2023/03/12 08:11:59;;;;;;;;;;;2.00;99.90;;;;;;5051001;28;19938;-71
2023/03/12 08:14:30;;;;;;;;;;;2.10;99.90;;;;;;5006732;28;241531;-72
2023/03/12 08:16:59;;;;;;;;;;;2.10;99.90;;;;;;5054820;28;19924;-72
2023/03/12 08:19:25;;;;;;;;;;;2.20;99.90;;;;;;5008693;28;208963;-72
2023/03/12 08:21:52;;;;;;;;;;;2.20;99.90;;;;;;5056173;28;19928;-72
2023/03/12 08:24:19;;;;;;;;;;;2.20;99.90;;;;;;4999110;28;210233;-72
2023/03/12 08:26:45;;;;;;;;;;;2.20;99.90;;;;;;5048778;28;20333;-72
2023/03/12 08:29:11;;;;;;;;;;;2.20;99.90;;;;;;5006264;28;209209;-72
2023/03/12 08:31:37;;;;;;;;;;;2.20;99.90;;;;;;5049521;28;19935;-72
2023/03/12 08:34:03;;;;;;;;;;;2.20;99.90;;;;;;5009029;28;234853;-71
2023/03/12 08:36:29;;;;;;;;;;;2.20;99.90;;;;;;5065413;28;19935;-70
2023/03/12 08:38:55;;;;;;;;;;;2.20;99.90;;;;;;5019579;28;27470;-72
2023/03/12 08:41:21;;;;;;;;;;;2.30;99.90;;;;;;5046982;28;20409;-71
2023/03/12 08:43:46;;;;;;;;;;;2.30;99.90;;;;;;5030469;28;211759;-71
2023/03/12 08:46:13;;;;;;;;;;;2.30;99.90;;;;;;5048356;28;19924;-73
2023/03/12 08:48:39;;;;;;;;;;;2.40;99.90;;;;;;5006280;28;240019;-72
2023/03/12 08:51:06;;;;;;;;;;;2.50;99.90;;;;;;5043730;28;20403;-74
2023/03/12 08:53:33;;;;;;;;;;;2.60;99.90;;;;;;5047626;28;208394;-74
2023/03/12 08:55:59;;;;;;;;;;;2.70;99.90;;;;;;5029975;28;20389;-73
2023/03/12 08:58:25;;;;;;;;;;;2.70;99.90;;;;;;5076573;28;19925;-74
2023/03/12 09:00:51;;;;;;;;;;;2.70;99.90;;;;;;5008886;28;208206;-74
2023/03/12 09:03:17;;;;;;;;;;;2.70;99.90;;;;;;5059992;28;19935;-73
2023/03/12 09:05:44;;;;;;;;;;;2.60;99.90;;;;;;4999483;28;182018;-72
2023/03/12 09:08:10;;;;;;;;;;;2.60;99.90;;;;;;5083173;28;20054;-73
2023/03/12 09:10:36;;;;;;;;;;;2.60;99.90;;;;;;5005394;27;208733;-72
2023/03/12 09:13:03;;;;;;;;;;;2.60;99.90;;;;;;5083549;28;20313;-72
2023/03/12 09:15:29;;;;;;;;;;;2.70;99.90;;;;;;5009417;28;254204;-72
2023/03/12 09:17:55;;;;;;;;;;;2.60;99.90;;;;;;5057318;28;19935;-71
2023/03/12 09:20:22;;;;;;;;;;;2.50;99.90;;;;;;4951187;28;247794;-72
2023/03/12 09:22:48;;;;;;;;;;;2.60;99.90;;;;;;5055300;28;19931;-73
2023/03/12 09:25:14;;;;;;;;;;;2.60;99.90;;;;;;4986683;28;211114;-72
2023/03/12 09:27:41;;;;;;;;;;;2.70;99.90;;;;;;5056153;28;19920;-70
2023/03/12 09:30:08;;;;;;;;;;;2.60;99.90;;;;;;4976615;28;209824;-71
2023/03/12 09:32:34;;;;;;;;;;;2.60;99.90;;;;;;5052843;28;19924;-71
2023/03/12 09:35:00;;;;;;;;;;;2.60;99.90;;;;;;5003229;28;213991;-71
2023/03/12 09:37:26;;;;;;;;;;;2.60;99.90;;;;;;5038581;28;19927;-71
2023/03/12 09:39:52;;;;;;;;;;;2.60;99.90;;;;;;4995658;28;215918;-73
2023/03/12 09:42:23;;;;;;;;;;;2.50;99.90;;;;;;5046574;28;19920;-71
2023/03/12 09:44:51;;;;;;;;;;;2.60;99.90;;;;;;5005377;28;204663;-71
2023/03/12 09:47:16;;;;;;;;;;;2.70;99.90;;;;;;5071329;28;19939;-70
2023/03/12 09:49:52;;;;;;;;;;;2.60;99.90;;;;;;5030438;28;208890;-70
2023/03/12 09:52:24;;;;;;;;;;;2.50;99.90;;;;;;5073542;28;19928;-71
2023/03/12 09:54:57;;;;;;;;;;;2.50;99.90;;;;;;4980436;28;212801;-72
2023/03/12 09:57:24;;;;;;;;;;;2.50;99.90;;;;;;5044750;28;19929;-76
2023/03/12 09:59:51;;;;;;;;;;;2.40;99.90;;;;;;5003048;28;214225;-72
2023/03/12 10:02:23;;;;;;;;;;;2.30;99.90;;;;;;5068239;28;19935;-73
2023/03/12 10:04:59;;;;;;;;;;;2.40;99.90;;;;;;4996619;28;228313;-73
2023/03/12 10:07:34;;;;;;;;;;;2.40;99.90;;;;;;5057786;28;19928;-73
2023/03/12 10:10:06;;;;;;;;;;;2.40;99.90;;;;;;5012139;28;212737;-73
2023/03/12 10:12:46;;;;;;;;;;;2.40;99.90;;;;;;5058330;28;19924;-73
2023/03/12 10:15:15;;;;;;;;;;;2.40;99.90;;;;;;5003959;28;236192;-72
2023/03/12 10:17:41;;;;;;;;;;;2.40;99.90;;;;;;5040842;28;19931;-72
2023/03/12 10:20:09;;;;;;;;;;;2.50;99.90;;;;;;5018646;28;238268;-72
2023/03/12 10:22:45;;;;;;;;;;;2.40;99.90;;;;;;5056687;28;21180;-71
2023/03/12 10:25:17;;;;;;;;;;;2.50;99.90;;;;;;4980300;28;203511;-73
2023/03/12 10:27:43;;;;;;;;;;;2.50;99.90;;;;;;5051896;28;20271;-72
2023/03/12 10:30:23;;;;;;;;;;;2.60;99.90;;;;;;5011873;28;209898;-72
2023/03/12 10:32:50;;;;;;;;;;;2.50;99.90;;;;;;5074201;28;20865;-72
2023/03/12 10:35:21;;;;;;;;;;;2.50;99.90;;;;;;5002716;28;240352;-71
2023/03/12 10:37:52;;;;;;;;;;;2.60;99.90;;;;;;5056658;28;19929;-71
2023/03/12 10:40:20;;;;;;;;;;;2.60;99.90;;;;;;4979276;28;183805;-72
2023/03/12 10:42:46;;;;;;;;;;;2.70;99.90;;;;;;5055124;28;19924;-73
2023/03/12 10:45:33;;;;;;;;;;;2.70;99.90;;;;;;5010224;28;90753;-73
2023/03/12 10:48:07;;;;;;;;;;;2.70;99.90;;;;;;5059136;28;19979;-73
2023/03/12 10:50:34;;;;;;;;;;;2.80;99.90;;;;;;4966300;28;198483;-73
2023/03/12 10:53:18;;;;;;;;;;;2.80;99.90;;;;;;5039334;28;19929;-72
2023/03/12 10:55:56;;;;;;;;;;;2.80;99.90;;;;;;5014060;28;210557;-71
2023/03/12 10:58:23;;;;;;;;;;;2.80;99.90;;;;;;5068819;28;20282;-72
2023/03/12 11:00:56;;;;;;;;;;;2.80;99.90;;;;;;4991086;28;206620;-72
2023/03/12 11:03:22;;;;;;;;;;;2.90;99.90;;;;;;5061575;28;19924;-71
2023/03/12 11:05:49;;;;;;;;;;;2.90;99.90;;;;;;4988505;28;211570;-72
2023/03/12 11:08:29;;;;;;;;;;;3.00;99.90;;;;;;5059741;28;19933;-72
2023/03/12 11:10:56;;;;;;;;;;;3.00;99.90;;;;;;4998592;28;284573;-73
2023/03/12 11:13:32;;;;;;;;;;;3.10;99.90;;;;;;5079891;28;20016;-70
2023/03/12 11:16:00;;;;;;;;;;;3.10;99.90;;;;;;4979421;28;206425;-71
2023/03/12 11:18:27;;;;;;;;;;;3.20;99.90;;;;;;5080629;28;20012;-72
2023/03/12 11:20:55;;;;;;;;;;;3.30;99.90;;;;;;4997661;28;222208;-71
2023/03/12 11:23:23;;;;;;;;;;;3.40;99.90;;;;;;5078776;28;19991;-71
2023/03/12 11:25:51;;;;;;;;;;;3.50;99.90;;;;;;4993730;28;206441;-71
2023/03/12 11:28:21;;;;;;;;;;;3.50;99.90;;;;;;5082766;28;19943;-71
2023/03/12 11:30:48;;;;;;;;;;;3.60;99.90;;;;;;5033614;28;249434;-72
2023/03/12 11:33:16;;;;;;;;;;;3.60;99.90;;;;;;5078287;28;21875;-71
2023/03/12 11:35:55;;;;;;;;;;;3.60;99.90;;;;;;5027909;28;210406;-71
2023/03/12 11:38:27;;;;;;;;;;;3.70;99.90;;;;;;5071199;28;19928;-71
2023/03/12 11:40:52;;;;;;;;;;;3.80;99.90;;;;;;4976286;28;212036;-71
2023/03/12 11:43:30;;;;;;;;;;;4.00;99.90;;;;;;5056121;28;20036;-70
2023/03/12 11:46:05;;;;;;;;;;;4.10;99.90;;;;;;5001574;28;80231;-71
2023/03/12 11:48:41;;;;;;;;;;;4.20;99.90;;;;;;5046950;28;208299;-70
2023/03/12 11:51:30;;;;;;;;;;;4.30;99.90;;;;;;5001035;28;220342;-71
2023/03/12 11:54:07;;;;;;;;;;;4.40;99.90;;;;;;4996842;28;194187;-71
2023/03/12 11:56:33;;;;;;;;;;;4.50;99.90;;;;;;5050505;28;20411;-70
2023/03/12 11:59:18;;;;;;;;;;;4.60;99.90;;;;;;5020463;28;211165;-70
2023/03/12 12:02:12;;;;;;;;;;;4.70;99.90;;;;;;5079302;28;19928;-71
2023/03/12 12:04:56;;;;;;;;;;;4.70;99.90;;;;;;5022742;28;195919;-72
2023/03/12 12:07:25;;;;;;;;;;;4.80;99.90;;;;;;5084430;28;19935;-71
2023/03/12 12:09:59;;;;;;;;;;;4.80;99.90;;;;;;5023202;28;206562;-71
2023/03/12 12:12:25;;;;;;;;;;;4.80;99.90;;;;;;5070418;28;19958;-70
2023/03/12 12:15:09;;;;;;;;;;;4.80;99.90;;;;;;5032664;28;208648;-71
2023/03/12 12:17:41;;;;;;;;;;;4.90;99.90;;;;;;5073401;28;20481;-72
2023/03/12 12:20:20;;;;;;;;;;;5.10;99.90;;;;;;4966315;28;160967;-71
2023/03/12 12:22:55;;;;;;;;;;;5.20;99.90;;;;;;5052724;28;19931;-71
2023/03/12 12:25:32;;;;;;;;;;;5.30;99.90;;;;;;5012307;28;217629;-71
2023/03/12 12:28:07;;;;;;;;;;;5.40;99.90;;;;;;5058769;28;19944;-71
2023/03/12 12:30:53;;;;;;;;;;;5.50;99.90;;;;;;4995533;28;206142;-71
2023/03/12 12:33:35;;;;;;;;;;;5.60;99.90;;;;;;5074314;28;19935;-71
2023/03/12 12:36:01;;;;;;;;;;;5.60;99.90;;;;;;4984219;28;69979;-70
2023/03/12 12:38:36;;;;;;;;;;;5.70;99.90;;;;;;5053013;28;19921;-70
2023/03/12 12:41:08;;;;;;;;;;;5.80;99.90;;;;;;5016729;28;170270;-70
2023/03/12 12:43:55;;;;;;;;;;;5.80;99.90;;;;;;5027999;28;208141;-71
2023/03/12 12:46:22;;;;;;;;;;;5.90;99.90;;;;;;5051500;28;19924;-72
2023/03/12 12:48:56;;;;;;;;;;;5.90;99.90;;;;;;5007912;28;223254;-72
2023/03/12 12:51:25;;;;;;;;;;;6.00;99.90;;;;;;5035088;28;19924;-71
2023/03/12 12:54:05;;;;;;;;;;;6.00;99.90;;;;;;4990620;28;211758;-71
2023/03/12 12:56:49;;;;;;;;;;;6.10;99.90;;;;;;5069330;28;19928;-70
2023/03/12 12:59:37;;;;;;;;;;;6.20;99.90;;;;;;5023294;28;203816;-70
2023/03/12 13:02:04;;;;;;;;;;;6.30;99.90;;;;;;5061941;28;19928;-71
2023/03/12 13:04:34;;;;;;;;;;;6.20;99.90;;;;;;4976385;28;206738;-70
2023/03/12 13:07:12;;;;;;;;;;;6.30;99.90;;;;;;5058773;28;20297;-70
2023/03/12 13:09:42;;;;;;;;;;;6.40;99.90;;;;;;5001316;28;202184;-69
2023/03/12 13:12:23;;;;;;;;;;;6.60;99.90;;;;;;5075494;28;20654;-71
2023/03/12 13:14:51;;;;;;;;;;;6.70;99.90;;;;;;5035860;28;216097;-70
2023/03/12 13:17:27;;;;;;;;;;;6.80;99.90;;;;;;5077115;28;20002;-71
2023/03/12 13:19:58;;;;;;;;;;;6.90;99.90;;;;;;5013579;28;209781;-70
2023/03/12 13:22:50;;;;;;;;;;;7.00;99.90;;;;;;5077711;28;19931;-71
2023/03/12 13:25:16;;;;;;;;;;;6.90;99.90;;;;;;4958718;28;219479;-71
2023/03/12 13:27:43;;;;;;;;;;;6.80;99.90;;;;;;5055238;28;19935;-71
2023/03/12 13:30:28;;;;;;;;;;;6.80;99.90;;;;;;4998722;28;209180;-71
2023/03/12 13:32:57;;;;;;;;;;;6.80;99.90;;;;;;5057635;28;20310;-71
2023/03/12 13:35:23;;;;;;;;;;;6.80;99.90;;;;;;5020672;28;222499;-71
2023/03/12 13:37:52;;;;;;;;;;;6.90;99.90;;;;;;5056094;28;19928;-71
2023/03/12 13:40:24;;;;;;;;;;;7.00;99.90;;;;;;5004312;28;207822;-72
2023/03/12 13:43:00;;;;;;;;;;;7.00;99.90;;;;;;5055512;28;19943;-72
2023/03/12 13:45:28;;;;;;;;;;;7.00;99.90;;;;;;5007240;28;206299;-72
2023/03/12 13:47:56;;;;;;;;;;;7.00;99.90;;;;;;5061174;28;19925;-71
2023/03/12 13:50:22;;;;;;;;;;;7.20;99.90;;;;;;4967198;28;208308;-72
2023/03/12 13:52:52;;;;;;;;;;;7.50;99.90;;;;;;5057973;28;19924;-72
2023/03/12 13:55:24;;;;;;;;;;;7.60;99.90;;;;;;4987170;28;208968;-72
2023/03/12 13:57:53;;;;;;;;;;;7.90;99.90;;;;;;5057120;28;19936;-72
2023/03/12 14:00:19;;;;;;;;;;;7.90;99.90;;;;;;4996396;28;209845;-72
2023/03/12 14:02:50;;;;;;;;;;;8.10;99.90;;;;;;5055342;28;19920;-72
2023/03/12 14:05:17;;;;;;;;;;;8.00;99.90;;;;;;5000105;28;213393;-71
2023/03/12 14:08:02;;;;;;;;;;;8.00;99.90;;;;;;5058005;28;19924;-71
2023/03/12 14:10:31;;;;;;;;;;;8.00;99.90;;;;;;4967595;28;209775;-72
2023/03/12 14:13:06;;;;;;;;;;;8.20;99.90;;;;;;5058226;28;19931;-73
2023/03/12 14:15:38;;;;;;;;;;;8.30;99.90;;;;;;5007568;28;209658;-73
2023/03/12 14:18:11;;;;;;;;;;;8.30;99.90;;;;;;5054649;28;20014;-73
2023/03/12 14:20:37;;;;;;;;;;;8.20;99.90;;;;;;5004664;28;209463;-73
2023/03/12 14:23:05;;;;;;;;;;;8.20;99.90;;;;;;5071499;28;20377;-73
2023/03/12 14:25:33;;;;;;;;;;;8.10;99.90;;;;;;4988872;28;209174;-73
2023/03/12 14:27:59;;;;;;;;;;;8.20;99.90;;;;;;5057756;28;19928;-74